Time;durP1;ratioP1;P1;durP2;ratioP2;P2;SDS_P1;SDS_P2;PMS_P1;PMS_P2;Temp;Humidity;BMP_temperature;BMP_pressure;BME280_temperature;BME280_humidity;BME280_pressure;Samples;Min_cycle;Max_cycle;Signal;HPM_P1;HPM_P2
2023/12/13 00:01:14;;;;;;;22.60;9.60;;;13.70;99.90;;;;;;5015790;28;20072;-92
2023/12/13 00:03:43;;;;;;;15.52;9.30;;;13.60;99.90;;;;;;4985720;28;20033;-91
2023/12/13 00:06:09;;;;;;;15.40;8.85;;;13.70;99.90;;;;;;5001576;28;20487;-91
2023/12/13 00:08:36;;;;;;;16.65;8.13;;;13.70;99.90;;;;;;4989543;28;20045;-92
2023/12/13 00:11:03;;;;;;;19.25;9.18;;;13.80;99.90;;;;;;5010350;28;20030;-91
2023/12/13 00:13:32;;;;;;;20.67;8.15;;;13.80;99.90;;;;;;4989749;28;20029;-92
2023/12/13 00:15:59;;;;;;;18.40;7.90;;;13.80;99.90;;;;;;4985090;28;20386;-91
2023/12/13 00:18:25;;;;;;;17.30;8.20;;;13.90;99.90;;;;;;4983347;28;20053;-90
2023/12/13 00:20:53;;;;;;;19.98;8.82;;;13.90;99.90;;;;;;4980399;28;20050;-91
2023/12/13 00:23:20;;;;;;;14.82;8.43;;;14.00;99.90;;;;;;4973981;28;20053;-91
2023/12/13 00:25:47;;;;;;;17.50;8.27;;;14.00;99.90;;;;;;4984441;28;20497;-91
2023/12/13 00:28:13;;;;;;;13.30;8.27;;;14.10;99.90;;;;;;4988011;28;20021;-90
2023/12/13 00:30:53;;;;;;;19.13;8.68;;;14.10;99.90;;;;;;4992811;28;20045;-91
2023/12/13 00:33:19;;;;;;;16.42;7.75;;;14.20;99.90;;;;;;4996226;28;20038;-90
2023/12/13 00:35:48;;;;;;;15.13;8.20;;;14.20;99.90;;;;;;4985696;28;20477;-93
2023/12/13 00:38:15;;;;;;;17.10;8.23;;;14.20;99.90;;;;;;4969522;28;20039;-90
2023/12/13 00:40:42;;;;;;;12.00;7.38;;;14.10;99.90;;;;;;4961353;28;20039;-90
2023/12/13 00:43:08;;;;;;;15.02;7.43;;;14.00;99.90;;;;;;4960117;28;20034;-90
2023/12/13 00:45:45;;;;;;;10.27;6.93;;;14.10;99.90;;;;;;4971520;28;20046;-90
2023/12/13 00:48:12;;;;;;;14.00;6.97;;;14.10;99.90;;;;;;4967269;28;20130;-92
2023/12/13 00:50:44;;;;;;;14.40;6.43;;;14.10;99.90;;;;;;4952048;28;20053;-91
2023/12/13 00:53:12;;;;;;;13.07;7.00;;;14.20;99.90;;;;;;4973029;28;20046;-92
2023/12/13 00:55:41;;;;;;;8.88;6.35;;;14.20;99.90;;;;;;4980428;28;20107;-91
2023/12/13 00:58:07;;;;;;;9.13;5.88;;;14.20;99.90;;;;;;4939383;29;20083;-90
2023/12/13 01:00:34;;;;;;;15.95;6.70;;;14.30;99.90;;;;;;4940742;29;20094;-91
2023/12/13 01:03:00;;;;;;;10.55;6.15;;;14.30;99.90;;;;;;4943640;29;20541;-91
2023/12/13 01:05:27;;;;;;;12.68;6.05;;;14.20;99.90;;;;;;4972572;28;20173;-92
2023/12/13 01:07:53;;;;;;;15.30;7.20;;;14.30;99.90;;;;;;4990460;28;20086;-90
2023/12/13 01:10:20;;;;;;;17.95;7.35;;;14.30;99.90;;;;;;4978412;28;20038;-91
2023/12/13 01:12:49;;;;;;;10.27;6.45;;;14.20;99.90;;;;;;4984499;28;20065;-91
2023/12/13 01:15:15;;;;;;;15.77;6.50;;;14.30;99.90;;;;;;4994550;28;20121;-94
2023/12/13 01:17:43;;;;;;;13.35;6.32;;;14.30;99.90;;;;;;5001143;28;20073;-92
2023/12/13 01:20:09;;;;;;;17.02;7.10;;;14.40;99.90;;;;;;5014625;28;20066;-89
2023/12/13 01:22:36;;;;;;;17.67;7.03;;;14.30;99.90;;;;;;4998160;28;20545;-91
2023/12/13 01:25:03;;;;;;;17.27;7.35;;;14.30;99.90;;;;;;4992945;28;20077;-90
2023/12/13 01:27:30;;;;;;;19.95;7.00;;;14.30;99.90;;;;;;4980369;28;20022;-91
2023/12/13 01:29:57;;;;;;;14.38;6.93;;;14.30;99.90;;;;;;4987340;28;20034;-89
2023/12/13 01:32:23;;;;;;;12.10;7.18;;;14.30;99.90;;;;;;4991274;28;20038;-89
2023/12/13 01:34:49;;;;;;;16.67;7.57;;;14.40;99.90;;;;;;5008189;28;20046;-92
2023/12/13 01:37:15;;;;;;;13.55;6.88;;;14.30;99.90;;;;;;4989530;28;20026;-91
2023/12/13 01:39:42;;;;;;;16.83;7.07;;;14.40;99.90;;;;;;5004028;28;20129;-91
2023/12/13 01:42:08;;;;;;;13.70;7.45;;;14.30;99.90;;;;;;5004498;28;20022;-92
2023/12/13 01:44:38;;;;;;;17.05;7.55;;;14.40;99.90;;;;;;5006505;28;20036;-92
2023/12/13 01:47:18;;;;;;;12.65;7.05;;;14.30;99.90;;;;;;5013499;28;20030;-92
2023/12/13 01:49:48;;;;;;;23.55;7.18;;;14.40;99.90;;;;;;4993093;28;20034;-91
2023/12/13 01:52:21;;;;;;;18.45;7.03;;;14.50;99.90;;;;;;4996423;28;20029;-91
2023/12/13 01:54:55;;;;;;;20.17;7.35;;;14.60;99.90;;;;;;4979091;28;20049;-92
2023/12/13 01:57:30;;;;;;;18.15;7.93;;;14.60;99.90;;;;;;4984266;28;20057;-92
2023/12/13 01:59:59;;;;;;;14.48;7.93;;;14.60;99.90;;;;;;4999292;28;20045;-92
2023/12/13 02:02:25;;;;;;;15.07;8.00;;;14.50;99.90;;;;;;5010630;28;20090;-91
2023/12/13 02:04:53;;;;;;;25.25;8.50;;;14.60;99.90;;;;;;5010039;28;20026;-92
2023/12/13 02:07:19;;;;;;;20.50;9.43;;;14.60;99.90;;;;;;4991199;28;20090;-90
2023/12/13 02:09:50;;;;;;;20.33;9.20;;;14.60;99.90;;;;;;5004626;28;20022;-92
2023/12/13 02:12:17;;;;;;;21.33;10.02;;;14.60;99.90;;;;;;5031905;28;20016;-91
2023/12/13 02:14:46;;;;;;;24.10;10.43;;;14.70;99.90;;;;;;5016896;28;20063;-91
2023/12/13 02:17:13;;;;;;;24.85;10.93;;;14.70;99.90;;;;;;5005752;28;20046;-91
2023/12/13 02:19:40;;;;;;;27.80;11.13;;;14.80;99.90;;;;;;5007897;28;20088;-92
2023/12/13 02:22:08;;;;;;;21.52;11.60;;;14.90;99.90;;;;;;5028878;28;20036;-92
2023/12/13 02:24:37;;;;;;;23.20;11.00;;;14.90;99.90;;;;;;5015746;28;20121;-91
2023/12/13 02:27:55;;;;;;;29.70;12.27;;;14.90;99.90;;;;;;5031953;28;20026;-93
2023/12/13 02:31:08;;;;;;;18.88;10.23;;;15.00;99.90;;;;;;5031896;28;20104;-91
2023/12/13 02:33:35;;;;;;;19.38;11.00;;;15.00;99.90;;;;;;5011760;28;20030;-92
2023/12/13 02:36:03;;;;;;;24.17;10.00;;;15.00;99.90;;;;;;5013509;28;20411;-91
2023/12/13 02:38:57;;;;;;;20.67;10.20;;;15.10;99.90;;;;;;5016853;28;20083;-93
2023/12/13 02:41:44;;;;;;;30.42;10.10;;;15.00;99.90;;;;;;4990853;28;20056;-93
2023/12/13 02:47:52;;;;;;;23.67;10.07;;;15.00;99.90;;;;;;5043191;23;20068;-90
2023/12/13 02:50:19;;;;;;;26.70;10.68;;;15.10;99.90;;;;;;5051881;28;20061;-92
2023/12/13 02:52:59;;;;;;;21.23;10.25;;;15.10;99.90;;;;;;5027780;28;20060;-92
2023/12/13 02:55:28;;;;;;;22.60;9.80;;;15.10;99.90;;;;;;5006601;28;20538;-93
2023/12/13 02:57:56;;;;;;;26.30;9.20;;;15.10;99.90;;;;;;5018680;28;20548;-92
2023/12/13 03:01:03;;;;;;;26.25;8.77;;;15.20;99.90;;;;;;5015445;28;20084;-94
2023/12/13 03:03:36;;;;;;;19.85;8.63;;;15.20;99.90;;;;;;5008814;28;20041;-92
2023/12/13 03:06:03;;;;;;;26.30;8.95;;;15.30;99.90;;;;;;5013840;28;20034;-90
2023/12/13 03:08:30;;;;;;;16.27;8.50;;;15.30;99.90;;;;;;4995253;28;20026;-90
2023/12/13 03:10:56;;;;;;;16.25;9.07;;;15.30;99.90;;;;;;4994959;28;20030;-91
2023/12/13 03:13:25;;;;;;;20.15;8.02;;;15.40;99.90;;;;;;5013673;28;20030;-90
2023/12/13 03:15:51;;;;;;;20.90;8.50;;;15.30;99.90;;;;;;5016871;28;20045;-92
2023/12/13 03:18:18;;;;;;;23.77;8.10;;;15.40;99.90;;;;;;5009551;28;20053;-90
2023/12/13 03:20:47;;;;;;;26.10;7.40;;;15.40;99.90;;;;;;5015015;28;20018;-91
2023/12/13 03:23:14;;;;;;;29.48;7.75;;;15.40;99.90;;;;;;4994831;28;20038;-91
2023/12/13 03:25:49;;;;;;;15.77;8.10;;;15.40;99.90;;;;;;5013363;28;20013;-91
2023/12/13 03:28:16;;;;;;;24.58;7.53;;;15.40;99.90;;;;;;5001743;28;20038;-91
2023/12/13 03:30:42;;;;;;;28.45;7.65;;;15.30;99.90;;;;;;5019167;28;20045;-91
2023/12/13 03:33:10;;;;;;;12.75;7.28;;;15.40;99.90;;;;;;5054690;28;20027;-91
2023/12/13 03:35:36;;;;;;;17.08;7.35;;;15.30;99.90;;;;;;5053990;28;20029;-92
2023/12/13 03:38:04;;;;;;;19.95;7.53;;;15.30;99.90;;;;;;5066341;28;20032;-91
2023/12/13 03:40:30;;;;;;;18.10;6.90;;;15.30;99.90;;;;;;5049666;28;20029;-91
2023/12/13 03:42:56;;;;;;;25.13;7.97;;;15.30;99.90;;;;;;5050699;28;20029;-92
2023/12/13 03:45:24;;;;;;;11.90;6.90;;;15.30;99.90;;;;;;5047941;28;20026;-91
2023/12/13 03:47:50;;;;;;;12.48;6.90;;;15.20;99.90;;;;;;5031556;28;20093;-91
2023/12/13 03:50:21;;;;;;;15.57;6.82;;;15.20;99.90;;;;;;5049802;28;20038;-92
2023/12/13 03:52:51;;;;;;;20.63;7.85;;;15.20;99.90;;;;;;5046516;28;20035;-91
2023/12/13 03:55:36;;;;;;;17.42;7.15;;;15.20;99.90;;;;;;5032727;28;20038;-92
2023/12/13 04:00:32;;;;;;;22.00;7.45;;;15.10;99.90;;;;;;5129275;23;20052;-91
2023/12/13 04:03:03;;;;;;;22.48;7.53;;;15.20;99.90;;;;;;5003066;28;20038;-92
2023/12/13 04:05:44;;;;;;;16.40;7.13;;;15.30;99.90;;;;;;4973106;28;20049;-92
2023/12/13 04:08:17;;;;;;;13.25;7.40;;;15.20;99.90;;;;;;5004892;28;20054;-92
2023/12/13 04:10:46;;;;;;;21.10;7.07;;;15.30;99.90;;;;;;5005349;28;20041;-92
2023/12/13 04:13:12;;;;;;;21.52;7.70;;;15.30;99.90;;;;;;5008752;28;20026;-89
2023/12/13 04:15:39;;;;;;;17.58;7.38;;;15.30;99.90;;;;;;4965756;28;20105;-90
2023/12/13 04:18:05;;;;;;;20.52;7.60;;;15.30;99.90;;;;;;4964333;28;20030;-91
2023/12/13 04:20:31;;;;;;;21.58;7.15;;;15.40;99.90;;;;;;4963001;28;20101;-90
2023/12/13 04:22:58;;;;;;;14.07;7.97;;;15.30;99.90;;;;;;4979221;28;20033;-91
2023/12/13 04:25:24;;;;;;;15.77;8.00;;;15.30;99.90;;;;;;4963333;28;20030;-90
2023/12/13 04:27:51;;;;;;;23.58;7.00;;;15.20;99.90;;;;;;5000134;28;20039;-91
2023/12/13 04:30:18;;;;;;;16.48;7.43;;;15.40;99.90;;;;;;4964686;28;20488;-90
2023/12/13 04:32:44;;;;;;;17.58;6.88;;;15.30;99.90;;;;;;4983352;28;20069;-92
2023/12/13 04:35:10;;;;;;;20.92;7.60;;;15.30;99.90;;;;;;5001663;28;20053;-90
2023/12/13 04:37:38;;;;;;;16.50;7.15;;;15.30;99.90;;;;;;5001580;23;20121;-91
2023/12/13 04:40:06;;;;;;;20.17;6.93;;;15.20;99.90;;;;;;5003299;28;20088;-92
2023/12/13 04:42:35;;;;;;;14.30;7.13;;;15.30;99.90;;;;;;4993983;28;20026;-92
2023/12/13 04:45:02;;;;;;;14.30;7.72;;;15.20;99.90;;;;;;4964478;28;20043;-91
2023/12/13 04:47:28;;;;;;;20.83;7.90;;;15.20;99.90;;;;;;4962885;28;20139;-92
2023/12/13 04:49:55;;;;;;;20.42;7.75;;;15.30;99.90;;;;;;4961354;29;20397;-90
2023/12/13 04:52:21;;;;;;;18.00;7.50;;;15.20;99.90;;;;;;4943221;29;20110;-92
2023/12/13 04:54:47;;;;;;;27.10;8.60;;;15.20;99.90;;;;;;4941883;29;20042;-90
2023/12/13 04:57:14;;;;;;;19.98;8.60;;;15.20;99.90;;;;;;4939104;29;20055;-90
2023/12/13 04:59:40;;;;;;;18.52;7.10;;;15.30;99.90;;;;;;4939168;29;20047;-91
2023/12/13 05:02:06;;;;;;;17.52;7.28;;;15.30;99.90;;;;;;4939146;29;20114;-89
2023/12/13 05:04:33;;;;;;;18.55;7.00;;;15.30;99.90;;;;;;4935847;29;20036;-88
2023/12/13 05:07:00;;;;;;;21.33;7.95;;;15.30;99.90;;;;;;4919863;29;20081;-90
2023/12/13 05:09:26;;;;;;;21.13;7.40;;;15.30;99.90;;;;;;4921936;29;20032;-92
2023/12/13 05:11:53;;;;;;;21.67;7.97;;;15.20;99.90;;;;;;4912855;29;20027;-91
2023/12/13 05:14:19;;;;;;;16.85;7.35;;;15.30;99.90;;;;;;4942803;29;20031;-90
2023/12/13 05:16:47;;;;;;;22.58;7.70;;;15.40;99.90;;;;;;4994007;28;20046;-91
2023/12/13 05:19:13;;;;;;;13.90;7.43;;;15.30;99.90;;;;;;4940652;29;20031;-92
2023/12/13 05:21:39;;;;;;;21.98;7.03;;;15.30;99.90;;;;;;4958152;28;20046;-91
2023/12/13 05:24:06;;;;;;;19.70;7.38;;;15.40;99.90;;;;;;4955969;28;20127;-91
2023/12/13 05:26:32;;;;;;;15.57;7.00;;;15.40;99.90;;;;;;4939053;29;20405;-92
2023/12/13 05:28:59;;;;;;;16.20;6.45;;;15.40;99.90;;;;;;4938644;29;20396;-91
2023/12/13 05:31:28;;;;;;;18.75;6.50;;;15.40;99.90;;;;;;4938673;29;20019;-91
2023/12/13 05:33:56;;;;;;;23.48;6.47;;;15.40;99.90;;;;;;4954624;28;20054;-90
2023/12/13 05:36:22;;;;;;;23.50;6.38;;;15.40;99.90;;;;;;4938579;29;20047;-90
2023/12/13 05:38:49;;;;;;;20.05;7.03;;;15.40;99.90;;;;;;4922542;29;20042;-91
2023/12/13 05:41:15;;;;;;;17.10;7.15;;;15.40;99.90;;;;;;4922386;29;20039;-90
2023/12/13 05:43:41;;;;;;;15.07;6.38;;;15.40;99.90;;;;;;4923257;29;20038;-90
2023/12/13 05:46:08;;;;;;;14.95;5.57;;;15.40;99.90;;;;;;4934197;29;20035;-90
2023/12/13 05:48:34;;;;;;;11.52;5.75;;;15.40;99.90;;;;;;4954297;29;20038;-91
2023/12/13 05:51:01;;;;;;;14.98;5.97;;;15.40;99.90;;;;;;4990714;28;20037;-91
2023/12/13 05:53:32;;;;;;;16.23;6.85;;;15.50;99.90;;;;;;4977496;28;20027;-89
2023/12/13 05:56:00;;;;;;;12.95;5.47;;;15.40;99.90;;;;;;4977008;28;20027;-90
2023/12/13 05:58:26;;;;;;;12.65;5.38;;;15.50;99.90;;;;;;4977658;28;20116;-90
2023/12/13 06:00:53;;;;;;;21.02;6.07;;;15.50;99.90;;;;;;4976809;28;20047;-90
2023/12/13 06:03:19;;;;;;;15.18;5.82;;;15.50;99.90;;;;;;4995424;28;20030;-90
2023/12/13 06:05:45;;;;;;;14.98;6.32;;;15.50;99.90;;;;;;4980648;28;20034;-90
2023/12/13 06:08:12;;;;;;;16.45;5.85;;;15.50;99.90;;;;;;4980712;28;20109;-90
2023/12/13 06:10:39;;;;;;;7.72;5.38;;;15.50;99.90;;;;;;4980706;28;20483;-90
2023/12/13 06:13:05;;;;;;;10.38;5.07;;;15.50;99.90;;;;;;4980380;28;20463;-90
2023/12/13 06:15:32;;;;;;;11.75;5.47;;;15.50;99.90;;;;;;5015138;28;20058;-90
2023/12/13 06:17:59;;;;;;;12.77;5.57;;;15.50;99.90;;;;;;5014045;28;20372;-90
2023/12/13 06:20:26;;;;;;;14.82;5.82;;;15.50;99.90;;;;;;4984888;28;20084;-92
2023/12/13 06:22:52;;;;;;;13.75;6.20;;;15.50;99.90;;;;;;5013453;28;20061;-91
2023/12/13 06:25:20;;;;;;;11.38;6.20;;;15.60;99.90;;;;;;4997994;28;20050;-91
2023/12/13 06:27:47;;;;;;;16.65;6.20;;;15.60;99.90;;;;;;4980946;28;20057;-91
2023/12/13 06:30:13;;;;;;;13.93;6.30;;;15.50;99.90;;;;;;4980735;28;20572;-92
2023/12/13 06:32:39;;;;;;;13.82;6.20;;;15.60;99.90;;;;;;4997502;28;20030;-92
2023/12/13 06:35:06;;;;;;;12.23;5.82;;;15.60;99.90;;;;;;4981132;28;20505;-93
2023/12/13 06:37:36;;;;;;;20.80;6.35;;;15.60;99.90;;;;;;4994343;28;20066;-91
2023/12/13 06:40:02;;;;;;;15.52;6.13;;;15.60;99.90;;;;;;4983598;28;20049;-93
2023/12/13 06:42:29;;;;;;;12.07;5.85;;;15.60;99.90;;;;;;4983839;28;20033;-92
2023/12/13 06:44:55;;;;;;;9.52;5.75;;;15.60;99.90;;;;;;4983145;28;20117;-91
2023/12/13 06:47:21;;;;;;;19.13;5.95;;;15.60;99.90;;;;;;4982165;28;20030;-92
2023/12/13 06:49:48;;;;;;;14.90;5.75;;;15.60;99.90;;;;;;4982160;28;20033;-90
2023/12/13 06:52:15;;;;;;;15.60;6.30;;;15.70;99.90;;;;;;4980446;28;20049;-90
2023/12/13 06:54:41;;;;;;;12.13;5.20;;;15.60;99.90;;;;;;4981887;28;20044;-91
2023/12/13 06:57:07;;;;;;;17.65;5.78;;;15.60;99.90;;;;;;4980633;28;20029;-91
2023/12/13 06:59:34;;;;;;;17.58;5.95;;;15.60;99.90;;;;;;4981054;28;20065;-90
2023/12/13 07:02:00;;;;;;;17.33;5.43;;;15.70;99.90;;;;;;4980727;28;20084;-91
2023/12/13 07:04:26;;;;;;;15.23;5.80;;;15.70;99.90;;;;;;4980198;28;20117;-91
2023/12/13 07:06:54;;;;;;;10.88;5.55;;;15.80;99.90;;;;;;4980682;28;20041;-91
2023/12/13 07:09:20;;;;;;;14.05;5.97;;;15.70;99.90;;;;;;4983426;28;20030;-90
2023/12/13 07:11:47;;;;;;;14.50;6.07;;;15.80;99.90;;;;;;4983710;28;20022;-89
2023/12/13 07:14:14;;;;;;;13.40;5.78;;;15.80;99.90;;;;;;4983468;28;20030;-92
2023/12/13 07:16:42;;;;;;;15.63;5.88;;;15.80;99.90;;;;;;4983631;28;20038;-90
2023/12/13 07:19:10;;;;;;;15.38;5.85;;;15.90;99.90;;;;;;4983320;28;20026;-90
2023/12/13 07:21:36;;;;;;;9.75;5.82;;;15.90;99.90;;;;;;4983120;28;20034;-91
2023/12/13 07:24:05;;;;;;;9.75;6.22;;;15.90;99.90;;;;;;4983115;28;20026;-90
2023/12/13 07:26:32;;;;;;;11.25;5.75;;;15.90;99.90;;;;;;4979768;28;20030;-89
2023/12/13 07:29:02;;;;;;;16.15;6.82;;;15.90;99.90;;;;;;4963824;28;20050;-91
2023/12/13 07:31:29;;;;;;;13.63;6.35;;;16.00;99.90;;;;;;4980119;28;20026;-90
2023/12/13 07:33:55;;;;;;;12.65;7.20;;;16.00;99.90;;;;;;4979963;28;20033;-89
2023/12/13 07:36:22;;;;;;;14.68;7.63;;;16.00;99.90;;;;;;4990703;28;20371;-89
2023/12/13 07:38:48;;;;;;;10.98;7.00;;;16.20;99.90;;;;;;4988336;28;20034;-87
2023/12/13 07:41:14;;;;;;;17.27;7.00;;;16.20;99.90;;;;;;4982739;28;20038;-90
2023/12/13 07:43:41;;;;;;;9.68;7.30;;;16.30;99.90;;;;;;4982877;28;20018;-88
2023/12/13 07:46:07;;;;;;;13.45;7.80;;;16.40;99.90;;;;;;4983102;28;20041;-90
2023/12/13 07:48:33;;;;;;;11.75;7.97;;;16.40;99.90;;;;;;4982838;28;20030;-90
2023/12/13 07:51:03;;;;;;;15.00;8.20;;;16.50;99.90;;;;;;4982834;28;20021;-89
2023/12/13 07:53:31;;;;;;;14.00;8.70;;;16.60;99.90;;;;;;4998946;28;20476;-88
2023/12/13 07:55:58;;;;;;;17.73;8.65;;;16.70;99.90;;;;;;4982637;28;20022;-90
2023/12/13 07:58:27;;;;;;;11.68;8.48;;;16.70;99.90;;;;;;4982708;28;20479;-89
2023/12/13 08:00:54;;;;;;;15.20;8.80;;;16.60;99.90;;;;;;4982484;28;20057;-88
2023/12/13 08:03:28;;;;;;;11.15;8.15;;;16.60;99.90;;;;;;4997797;28;20026;-90
2023/12/13 08:05:55;;;;;;;12.45;8.70;;;16.60;99.90;;;;;;5002207;28;20043;-89
2023/12/13 08:08:21;;;;;;;18.08;9.00;;;16.70;99.90;;;;;;5001895;28;20021;-87
2023/12/13 08:10:47;;;;;;;14.57;9.40;;;16.80;99.90;;;;;;5001945;28;20125;-88
2023/12/13 08:13:19;;;;;;;13.95;9.43;;;16.80;99.90;;;;;;5002506;28;20104;-91
2023/12/13 08:15:49;;;;;;;12.93;8.90;;;16.70;99.90;;;;;;5001653;28;20029;-91
2023/12/13 08:18:19;;;;;;;16.83;8.68;;;16.60;99.90;;;;;;5002505;28;20049;-90
2023/12/13 08:20:48;;;;;;;17.83;9.85;;;16.60;99.90;;;;;;5001174;28;20099;-90
2023/12/13 08:23:14;;;;;;;19.75;8.63;;;16.70;99.90;;;;;;4997936;28;20025;-90
2023/12/13 08:25:41;;;;;;;14.02;8.95;;;16.70;99.90;;;;;;5012331;28;20068;-91
2023/12/13 08:28:08;;;;;;;10.55;8.10;;;16.90;99.90;;;;;;5001710;28;20021;-91
2023/12/13 08:30:35;;;;;;;12.82;8.80;;;17.10;99.90;;;;;;5001847;28;20056;-90
2023/12/13 08:33:02;;;;;;;11.65;9.25;;;17.30;99.90;;;;;;5002401;28;20025;-90
2023/12/13 08:35:31;;;;;;;13.88;9.77;;;17.30;99.90;;;;;;5018141;28;20033;-92
2023/12/13 08:38:01;;;;;;;12.38;9.40;;;17.10;99.90;;;;;;5001822;28;20123;-92
2023/12/13 08:40:29;;;;;;;14.27;9.93;;;17.10;99.90;;;;;;5001649;28;20041;-92
2023/12/13 08:42:56;;;;;;;14.52;10.25;;;17.10;99.90;;;;;;5001214;28;20116;-92
2023/12/13 08:45:23;;;;;;;14.18;9.73;;;17.30;99.90;;;;;;5001286;28;20030;-93
2023/12/13 08:47:50;;;;;;;16.13;10.10;;;17.40;99.90;;;;;;5001276;28;20026;-92
2023/12/13 08:50:26;;;;;;;14.82;10.60;;;17.30;99.90;;;;;;5001053;28;20033;-91
2023/12/13 08:53:01;;;;;;;15.38;10.05;;;17.40;99.90;;;;;;5002004;28;20478;-89
2023/12/13 08:55:31;;;;;;;14.57;9.85;;;17.30;99.90;;;;;;5000620;28;20033;-90
2023/12/13 08:57:58;;;;;;;13.20;9.80;;;17.30;99.90;;;;;;5001313;28;20504;-91
2023/12/13 09:00:25;;;;;;;15.95;9.50;;;17.30;99.90;;;;;;5000926;28;20076;-93
2023/12/13 09:02:51;;;;;;;12.40;9.43;;;17.30;99.90;;;;;;5001038;28;20032;-92
2023/12/13 09:05:17;;;;;;;14.70;9.82;;;17.20;99.90;;;;;;5000749;28;20025;-93
2023/12/13 09:07:44;;;;;;;13.27;9.07;;;17.20;99.90;;;;;;5000712;28;20057;-92
2023/12/13 09:10:11;;;;;;;12.70;9.25;;;17.20;99.90;;;;;;5000710;28;20033;-93
2023/12/13 09:12:38;;;;;;;13.95;8.85;;;17.20;99.90;;;;;;5000725;28;20057;-92
2023/12/13 09:15:07;;;;;;;9.82;8.82;;;17.20;99.90;;;;;;5003231;28;20033;-93
2023/12/13 09:17:35;;;;;;;13.05;9.05;;;17.30;99.90;;;;;;5001980;28;20056;-92
2023/12/13 09:20:01;;;;;;;10.57;8.57;;;17.20;99.90;;;;;;5003336;28;20037;-93
2023/12/13 09:22:30;;;;;;;11.60;8.82;;;17.30;99.90;;;;;;5087416;23;20050;-83
2023/12/13 09:24:59;;;;;;;21.23;9.70;;;17.30;99.90;;;;;;4973844;28;20050;-85
2023/12/13 09:27:27;;;;;;;13.63;9.00;;;17.30;99.90;;;;;;4958041;28;20081;-84
2023/12/13 09:29:54;;;;;;;14.73;8.43;;;17.40;99.90;;;;;;4957302;28;20037;-84
2023/12/13 09:32:20;;;;;;;15.98;9.15;;;17.40;99.90;;;;;;4970913;28;20028;-84
2023/12/13 09:34:46;;;;;;;16.20;8.75;;;17.30;99.90;;;;;;4993326;28;20060;-82
2023/12/13 09:37:13;;;;;;;15.25;8.88;;;17.30;99.90;;;;;;4992870;28;20026;-79
2023/12/13 09:39:39;;;;;;;16.10;8.98;;;17.30;99.90;;;;;;4993679;28;20038;-80
2023/12/13 09:42:05;;;;;;;14.77;8.70;;;17.30;99.90;;;;;;5004259;28;20053;-80
2023/12/13 09:44:39;;;;;;;11.20;8.75;;;17.40;99.90;;;;;;5012271;28;20030;-79
2023/12/13 09:47:06;;;;;;;16.07;9.10;;;17.40;99.90;;;;;;5013477;28;20087;-80
2023/12/13 09:49:36;;;;;;;18.83;8.88;;;17.40;99.90;;;;;;5011995;28;20105;-81
2023/12/13 09:52:04;;;;;;;16.02;9.13;;;17.40;99.90;;;;;;5012150;28;20034;-82
2023/12/13 09:54:31;;;;;;;13.48;8.93;;;17.30;99.90;;;;;;4996288;28;20030;-82
2023/12/13 09:56:57;;;;;;;13.57;9.40;;;17.30;99.90;;;;;;5012300;28;20085;-82
2023/12/13 09:59:26;;;;;;;12.52;8.30;;;17.30;99.90;;;;;;5013493;28;20018;-83
2023/12/13 10:01:55;;;;;;;15.75;8.52;;;17.20;99.90;;;;;;5003753;28;20483;-83
2023/12/13 10:04:26;;;;;;;16.38;8.15;;;17.20;99.90;;;;;;4976405;28;20372;-83
2023/12/13 10:06:52;;;;;;;22.10;8.15;;;17.10;99.90;;;;;;4976331;28;20583;-83
2023/12/13 10:09:19;;;;;;;17.10;8.40;;;17.10;99.90;;;;;;4995864;28;20022;-83
2023/12/13 10:11:46;;;;;;;18.75;7.93;;;17.10;99.90;;;;;;4992704;28;20127;-82
2023/12/13 10:14:12;;;;;;;15.10;8.02;;;17.10;99.90;;;;;;4976529;28;20109;-82
2023/12/13 10:16:41;;;;;;;11.93;7.43;;;17.10;99.90;;;;;;5008992;28;20034;-83
2023/12/13 10:19:08;;;;;;;18.52;10.35;;;17.10;99.90;;;;;;5006268;28;20479;-82
2023/12/13 10:21:35;;;;;;;16.73;8.05;;;17.10;99.90;;;;;;4989642;28;20567;-83
2023/12/13 10:24:06;;;;;;;18.55;7.85;;;17.00;99.90;;;;;;4976476;28;20042;-83
2023/12/13 10:26:35;;;;;;;22.10;7.55;;;17.00;99.90;;;;;;4976455;28;20030;-82
2023/12/13 10:29:03;;;;;;;17.20;7.60;;;17.00;99.90;;;;;;4976287;28;20026;-83
2023/12/13 10:31:31;;;;;;;10.27;6.93;;;17.00;99.90;;;;;;4976343;28;20114;-82
2023/12/13 10:33:58;;;;;;;18.60;8.00;;;17.00;99.90;;;;;;4992641;28;20064;-82
2023/12/13 10:36:28;;;;;;;14.35;7.50;;;17.00;99.90;;;;;;4993619;28;20027;-83
2023/12/13 10:38:55;;;;;;;10.70;7.45;;;17.00;99.90;;;;;;4976453;28;20034;-83
2023/12/13 10:41:26;;;;;;;17.92;7.13;;;17.00;99.90;;;;;;4980096;28;20387;-82
2023/12/13 10:44:00;;;;;;;17.35;7.82;;;17.00;99.90;;;;;;5031842;28;20022;-82
2023/12/13 10:46:30;;;;;;;16.65;7.35;;;16.90;99.90;;;;;;4999240;28;20030;-83
2023/12/13 10:48:59;;;;;;;16.42;7.25;;;17.00;99.90;;;;;;4999095;28;20021;-79
2023/12/13 10:51:31;;;;;;;15.95;7.00;;;17.00;99.90;;;;;;5012242;28;20022;-80
2023/12/13 10:54:01;;;;;;;17.55;7.45;;;17.00;99.90;;;;;;4996812;28;20030;-82
2023/12/13 10:56:37;;;;;;;15.90;7.97;;;17.00;99.90;;;;;;4980724;28;20086;-83
2023/12/13 10:59:07;;;;;;;15.05;8.07;;;17.00;99.90;;;;;;4995861;28;20026;-83
2023/12/13 11:01:36;;;;;;;16.67;8.30;;;17.00;99.90;;;;;;5000598;28;20041;-83
2023/12/13 11:04:12;;;;;;;19.25;8.55;;;17.10;99.90;;;;;;4999290;28;20501;-82
2023/12/13 11:06:45;;;;;;;;;;;17.10;99.90;;;;;;4999378;28;20510;-83
2023/12/13 11:09:17;;;;;;;11.15;7.38;;;17.10;99.90;;;;;;4998964;28;19948;-82
2023/12/13 11:11:44;;;;;;;18.17;8.48;;;17.10;99.90;;;;;;4992327;28;20038;-82
2023/12/13 11:14:17;;;;;;;10.90;8.27;;;17.00;99.90;;;;;;4996638;28;20026;-82
2023/12/13 11:16:49;;;;;;;22.77;9.55;;;17.00;99.90;;;;;;4979339;28;20076;-83
2023/12/13 11:19:20;;;;;;;13.75;8.05;;;17.00;99.90;;;;;;4979173;28;20037;-82
2023/12/13 11:21:50;;;;;;;11.55;7.35;;;16.90;99.90;;;;;;4985368;28;20046;-83
2023/12/13 11:24:25;;;;;;;11.30;7.03;;;16.90;99.90;;;;;;4998768;28;20073;-83
2023/12/13 11:26:53;;;;;;;18.23;8.15;;;16.90;99.90;;;;;;4998840;28;20045;-83
2023/12/13 11:29:28;;;;;;;15.52;8.40;;;16.90;99.90;;;;;;4998691;28;20022;-86
2023/12/13 11:32:03;;;;;;;14.00;8.52;;;16.90;99.90;;;;;;4991195;28;20033;-83
2023/12/13 11:34:32;;;;;;;18.60;7.53;;;16.90;99.90;;;;;;4978939;28;20030;-83
2023/12/13 11:37:03;;;;;;;14.80;7.78;;;16.90;99.90;;;;;;4979173;28;20031;-84
2023/12/13 11:39:31;;;;;;;18.48;7.75;;;16.90;99.90;;;;;;4979084;28;20030;-83
2023/12/13 11:42:06;;;;;;;20.80;7.40;;;16.90;99.90;;;;;;4986885;28;20076;-82
2023/12/13 11:44:34;;;;;;;13.45;6.60;;;16.90;99.90;;;;;;4998406;28;20080;-83
2023/12/13 11:47:12;;;;;;;12.85;6.97;;;16.80;99.90;;;;;;4998223;28;20395;-83
2023/12/13 11:49:40;;;;;;;15.55;7.47;;;16.90;99.90;;;;;;4998135;28;20033;-82
2023/12/13 11:52:07;;;;;;;15.40;6.70;;;16.90;99.90;;;;;;5005776;28;20078;-82
2023/12/13 11:54:36;;;;;;;18.88;6.57;;;16.90;99.90;;;;;;4977672;28;20053;-82
2023/12/13 11:57:10;;;;;;;20.52;6.50;;;16.80;99.90;;;;;;4978868;28;20023;-83
2023/12/13 11:59:36;;;;;;;11.70;6.00;;;16.80;99.90;;;;;;4978680;28;20019;-83
2023/12/13 12:02:04;;;;;;;19.02;7.53;;;16.90;99.90;;;;;;5002747;28;20026;-82
2023/12/13 12:04:31;;;;;;;14.18;5.95;;;16.90;99.90;;;;;;5014684;28;20037;-85
2023/12/13 12:06:58;;;;;;;11.88;5.60;;;16.90;99.90;;;;;;4998314;28;20033;-84
2023/12/13 12:09:25;;;;;;;18.85;7.13;;;16.80;99.90;;;;;;5015752;28;20026;-83
2023/12/13 12:11:57;;;;;;;13.43;5.97;;;16.80;99.90;;;;;;5007935;28;20026;-84
2023/12/13 12:14:28;;;;;;;14.13;7.00;;;16.70;99.90;;;;;;4994774;28;20027;-84
2023/12/13 12:16:54;;;;;;;15.20;6.18;;;16.70;99.90;;;;;;4985302;28;20034;-83
2023/12/13 12:19:20;;;;;;;15.60;7.10;;;16.70;99.90;;;;;;5014148;28;20100;-82
2023/12/13 12:21:47;;;;;;;21.00;6.60;;;16.70;99.90;;;;;;5013516;28;20082;-83
2023/12/13 12:24:13;;;;;;;16.23;5.85;;;16.70;99.90;;;;;;5014060;28;20391;-86
2023/12/13 12:26:39;;;;;;;19.38;6.50;;;16.70;99.90;;;;;;5013825;28;20120;-82
2023/12/13 12:29:05;;;;;;;23.77;6.63;;;16.70;99.90;;;;;;4997506;28;20033;-82
2023/12/13 12:31:32;;;;;;;21.70;6.90;;;16.70;99.90;;;;;;4993645;28;20044;-82
2023/12/13 12:33:59;;;;;;;19.20;6.68;;;16.70;99.90;;;;;;4977535;28;20153;-82
2023/12/13 12:36:26;;;;;;;14.45;6.10;;;16.70;99.90;;;;;;4977579;28;20038;-81
2023/12/13 12:38:53;;;;;;;16.45;6.97;;;16.70;99.90;;;;;;4993891;28;20097;-81
2023/12/13 12:41:22;;;;;;;20.42;7.22;;;16.70;99.90;;;;;;4994867;28;20427;-79
2023/12/13 12:43:51;;;;;;;22.83;7.05;;;16.70;99.90;;;;;;4996896;28;20026;-82
2023/12/13 12:46:20;;;;;;;20.65;6.95;;;16.80;99.90;;;;;;4996787;28;20032;-83
2023/12/13 12:48:46;;;;;;;25.70;6.32;;;16.70;99.90;;;;;;4993085;28;20117;-84